Time;durP1;ratioP1;P1;durP2;ratioP2;P2;SDS_P1;SDS_P2;PMS_P1;PMS_P2;Temp;Humidity;BMP_temperature;BMP_pressure;BME280_temperature;BME280_humidity;BME280_pressure;Samples;Min_cycle;Max_cycle;Signal;HPM_P1;HPM_P2
2024/04/11 00:02:48;;;;;;;5.00;3.40;;;;;;;11.03;69.08;101663.86;131028;1266;106558;-79
2024/04/11 00:05:55;;;;;;;6.60;3.90;;;;;;;11.00;69.29;101665.17;130987;1264;107518;-78
2024/04/11 00:09:00;;;;;;;6.20;3.60;;;;;;;10.95;69.40;101671.61;130973;1257;108830;-77
2024/04/11 00:12:07;;;;;;;5.30;3.80;;;;;;;10.89;69.28;101677.81;130899;1257;106793;-78
2024/04/11 00:15:12;;;;;;;5.70;4.00;;;;;;;10.81;69.70;101676.95;130889;1255;106524;-77
2024/04/11 00:18:17;;;;;;;6.20;4.10;;;;;;;10.76;69.69;101681.08;130891;1264;107638;-77
2024/04/11 00:21:23;;;;;;;6.80;4.00;;;;;;;10.71;69.81;101687.04;130914;1252;106289;-77
2024/04/11 00:24:28;;;;;;;5.60;4.00;;;;;;;10.68;69.88;101686.95;130908;1260;107187;-78
2024/04/11 00:27:34;;;;;;;5.20;3.20;;;;;;;10.63;69.87;101686.95;130884;1251;107087;-79
2024/04/11 00:30:40;;;;;;;6.60;4.30;;;;;;;10.63;70.06;101688.73;130891;1258;108977;-78
2024/04/11 00:33:54;;;;;;;6.80;3.70;;;;;;;10.65;69.92;101685.04;130935;1251;107819;-78
2024/04/11 00:37:01;;;;;;;8.00;4.40;;;;;;;10.68;69.45;101681.01;130890;1252;108501;-77
2024/04/11 00:40:10;;;;;;;6.90;4.20;;;;;;;10.74;69.43;101680.23;130924;1264;107587;-78
2024/04/11 00:43:16;;;;;;;5.00;3.50;;;;;;;10.73;69.54;101682.74;130942;1255;108682;-79
2024/04/11 00:46:21;;;;;;;5.60;3.90;;;;;;;10.72;69.49;101682.13;130881;1251;107497;-78
2024/04/11 00:49:28;;;;;;;4.60;3.10;;;;;;;10.72;69.95;101684.79;130894;1256;108830;-78
2024/04/11 00:52:34;;;;;;;5.30;3.40;;;;;;;10.67;69.57;101680.35;130900;1255;108829;-78
2024/04/11 00:55:41;;;;;;;5.60;3.60;;;;;;;10.60;69.53;101688.01;130944;1256;108644;-78
2024/04/11 00:58:47;;;;;;;7.60;4.00;;;;;;;10.55;69.62;101687.30;130899;1254;108954;-78
2024/04/11 01:01:52;;;;;;;8.70;4.10;;;;;;;10.54;69.39;101687.96;130792;1257;108723;-77
2024/04/11 01:05:00;;;;;;;7.70;5.20;;;;;;;10.53;69.69;101686.08;130863;1260;108625;-77
2024/04/11 01:08:07;;;;;;;8.50;4.70;;;;;;;10.51;69.72;101684.30;130933;1254;107143;-77
2024/04/11 01:11:13;;;;;;;10.70;6.00;;;;;;;10.48;69.51;101684.36;130909;1254;108773;-77
2024/04/11 01:14:18;;;;;;;12.70;7.30;;;;;;;10.42;69.58;101677.83;130906;1255;107110;-76
2024/04/11 01:17:23;;;;;;;9.20;5.00;;;;;;;10.34;69.76;101676.14;130896;1257;107640;-78
2024/04/11 01:20:28;;;;;;;6.50;4.20;;;;;;;10.26;69.38;101684.58;130884;1251;106872;-77
2024/04/11 01:23:33;;;;;;;7.00;4.10;;;;;;;10.16;69.44;101684.23;130913;1251;106557;-78
2024/04/11 01:26:38;;;;;;;5.70;3.90;;;;;;;10.08;69.51;101690.71;130930;1262;108518;-78
2024/04/11 01:29:44;;;;;;;7.20;3.70;;;;;;;9.99;69.60;101687.61;130918;1251;106645;-77
2024/04/11 01:32:49;;;;;;;5.40;3.80;;;;;;;9.92;69.64;101685.80;130936;1257;108740;-77
2024/04/11 01:35:54;;;;;;;5.10;3.80;;;;;;;9.83;69.63;101691.30;130945;1256;107500;-78
2024/04/11 01:39:04;;;;;;;7.30;4.50;;;;;;;9.74;69.63;101690.52;130931;1251;107749;-77
2024/04/11 01:42:10;;;;;;;6.00;3.80;;;;;;;9.66;69.57;101694.16;130918;1255;106517;-77
2024/04/11 01:45:16;;;;;;;7.00;3.90;;;;;;;9.60;69.59;101700.45;131003;1254;107757;-78
2024/04/11 01:48:21;;;;;;;9.50;5.30;;;;;;;9.54;69.68;101698.16;131014;1251;108813;-77
2024/04/11 01:51:26;;;;;;;7.10;4.20;;;;;;;9.51;69.70;101697.52;130876;1250;108694;-78
2024/04/11 01:54:31;;;;;;;6.40;4.10;;;;;;;9.49;69.37;101695.21;130984;1257;106669;-77
2024/04/11 01:57:37;;;;;;;5.40;3.90;;;;;;;9.43;69.42;101697.00;130985;1257;107353;-78
2024/04/11 02:00:43;;;;;;;5.50;3.90;;;;;;;9.37;69.66;101698.67;131022;1255;107492;-78
2024/04/11 02:03:48;;;;;;;7.70;3.50;;;;;;;9.31;69.49;101697.00;131006;1264;107549;-77
2024/04/11 02:06:53;;;;;;;6.70;3.50;;;;;;;9.25;69.43;101695.49;131017;1255;108677;-78
2024/04/11 02:09:59;;;;;;;5.00;3.60;;;;;;;9.17;69.57;101699.41;130993;1252;107522;-77
2024/04/11 02:13:05;;;;;;;6.40;3.80;;;;;;;9.06;69.54;101696.98;130951;1264;107817;-78
2024/04/11 02:16:10;;;;;;;5.20;3.80;;;;;;;8.98;69.66;101705.36;130886;1257;106537;-78
2024/04/11 02:19:16;;;;;;;5.30;3.70;;;;;;;8.91;69.40;101703.88;130890;1257;108736;-77
2024/04/11 02:22:21;;;;;;;5.90;4.00;;;;;;;8.85;69.33;101702.90;130899;1251;107714;-78
2024/04/11 02:25:26;;;;;;;8.30;5.20;;;;;;;8.78;69.40;101711.02;130963;1255;107752;-77
2024/04/11 02:28:31;;;;;;;12.00;6.60;;;;;;;8.70;69.30;101713.86;130987;1251;106322;-77
2024/04/11 02:31:36;;;;;;;20.30;10.00;;;;;;;8.64;69.43;101720.83;131035;1257;107818;-77
2024/04/11 02:34:41;;;;;;;25.70;11.40;;;;;;;8.57;69.50;101727.65;130962;1251;107765;-77
2024/04/11 02:37:51;;;;;;;23.00;10.40;;;;;;;8.49;69.37;101730.52;130936;1256;107740;-78
2024/04/11 02:40:56;;;;;;;19.70;9.20;;;;;;;8.40;69.46;101730.38;130989;1251;108785;-77
2024/04/11 02:44:02;;;;;;;21.30;10.60;;;;;;;8.34;69.35;101728.50;130952;1255;107335;-77
2024/04/11 02:47:08;;;;;;;18.30;9.20;;;;;;;8.29;69.36;101732.54;130831;1251;217003;-78
2024/04/11 02:50:15;;;;;;;15.90;8.50;;;;;;;8.21;69.35;101735.52;131013;1251;107260;-77
2024/04/11 02:53:20;;;;;;;10.40;6.30;;;;;;;8.14;69.33;101740.77;131072;1258;107690;-77
2024/04/11 02:56:26;;;;;;;10.40;5.80;;;;;;;8.08;69.52;101739.23;130943;1265;106893;-77
2024/04/11 02:59:31;;;;;;;8.80;5.60;;;;;;;8.03;69.43;101742.02;130975;1255;107353;-77
2024/04/11 03:02:37;;;;;;;6.60;4.40;;;;;;;7.99;69.45;101744.40;130906;1256;108816;-77
2024/04/11 03:05:42;;;;;;;6.80;4.00;;;;;;;7.95;69.44;101743.42;130943;1251;106925;-77
2024/04/11 03:08:50;;;;;;;6.50;4.30;;;;;;;7.92;69.38;101741.73;130912;1254;107196;-78
2024/04/11 03:11:55;;;;;;;5.80;4.60;;;;;;;7.93;69.29;101741.48;130948;1257;106771;-77
2024/04/11 03:15:03;;;;;;;11.60;6.20;;;;;;;7.95;69.39;101747.02;130893;1251;107705;-78
2024/04/11 03:18:09;;;;;;;10.00;6.40;;;;;;;7.92;69.32;101750.59;130920;1255;107844;-77
2024/04/11 03:21:14;;;;;;;8.10;5.40;;;;;;;7.91;69.27;101756.30;130928;1251;107332;-77
2024/04/11 03:24:19;;;;;;;6.90;4.70;;;;;;;7.91;69.34;101755.94;130929;1255;107605;-78
2024/04/11 03:27:24;;;;;;;9.90;5.00;;;;;;;7.89;69.42;101756.94;130908;1251;108013;-77
2024/04/11 03:30:30;;;;;;;10.40;5.60;;;;;;;7.84;69.55;101759.56;130927;1255;107724;-79
2024/04/11 03:33:36;;;;;;;8.80;5.70;;;;;;;7.81;69.47;101765.96;131006;1251;107339;-78
2024/04/11 03:36:44;;;;;;;8.70;5.80;;;;;;;7.77;69.48;101764.11;131028;1254;106208;-77
2024/04/11 03:39:49;;;;;;;6.20;4.40;;;;;;;7.71;69.38;101761.61;130891;1264;108736;-77
2024/04/11 03:42:56;;;;;;;6.30;4.40;;;;;;;7.65;69.26;101763.23;130922;1254;107810;-77
2024/04/11 03:46:09;;;;;;;7.60;4.90;;;;;;;7.59;69.39;101766.99;130922;1255;106708;-76
2024/04/11 03:49:14;;;;;;;9.50;5.00;;;;;;;7.55;69.45;101768.89;130966;1251;108494;-77
2024/04/11 03:52:20;;;;;;;7.60;5.00;;;;;;;7.50;69.32;101768.10;131003;1250;108478;-77
2024/04/11 03:55:25;;;;;;;7.30;4.60;;;;;;;7.44;69.02;101768.64;131034;1254;108679;-77
2024/04/11 03:58:31;;;;;;;9.30;5.70;;;;;;;7.38;69.50;101771.47;131137;1254;108720;-77
2024/04/11 04:01:36;;;;;;;7.40;4.90;;;;;;;7.34;69.50;101769.29;131266;1252;108394;-77
2024/04/11 04:04:42;;;;;;;7.50;4.50;;;;;;;7.30;69.49;101767.71;130987;1257;106597;-77
2024/04/11 04:07:48;;;;;;;6.60;4.10;;;;;;;7.30;69.44;101769.52;132692;1251;107498;-78
2024/04/11 04:10:53;;;;;;;5.70;3.90;;;;;;;7.27;69.29;101764.90;131110;1251;106942;-76
2024/04/11 04:13:58;;;;;;;6.20;4.30;;;;;;;7.28;69.33;101764.29;130918;1255;108659;-77
2024/04/11 04:17:03;;;;;;;8.10;5.70;;;;;;;7.31;69.34;101767.50;130955;1251;108475;-78
2024/04/11 04:20:10;;;;;;;9.30;5.30;;;;;;;7.33;69.59;101764.58;130863;1254;109095;-76
2024/04/11 04:23:15;;;;;;;9.40;5.30;;;;;;;7.33;69.50;101765.92;130937;1257;108393;-76
2024/04/11 04:26:20;;;;;;;8.90;5.10;;;;;;;7.32;69.48;101770.09;131178;1253;108699;-77
2024/04/11 04:29:25;;;;;;;6.80;5.00;;;;;;;7.31;69.84;101778.27;131095;1251;106780;-77
2024/04/11 04:32:30;;;;;;;6.60;4.70;;;;;;;7.35;69.64;101780.55;130927;1257;107821;-80
2024/04/11 04:35:36;;;;;;;8.60;5.10;;;;;;;7.42;69.80;101786.80;131020;1258;107132;-78
2024/04/11 04:38:41;;;;;;;8.20;5.10;;;;;;;7.53;69.83;101792.34;130991;1253;108702;-78
2024/04/11 04:41:47;;;;;;;8.00;5.20;;;;;;;7.66;69.95;101788.72;130928;1255;106663;-78
2024/04/11 04:44:54;;;;;;;9.40;5.60;;;;;;;7.79;69.91;101794.22;130970;1257;108134;-78
2024/04/11 04:48:02;;;;;;;9.50;6.20;;;;;;;7.93;69.95;101793.17;130926;1256;106890;-79
2024/04/11 04:51:08;;;;;;;8.90;5.50;;;;;;;8.07;69.97;101796.38;131201;1256;108594;-78
2024/04/11 04:54:14;;;;;;;8.80;5.40;;;;;;;8.21;69.87;101798.13;130893;1254;107368;-77
2024/04/11 04:57:20;;;;;;;11.20;6.20;;;;;;;8.33;69.94;101797.90;130960;1263;108823;-78
2024/04/11 05:00:25;;;;;;;10.60;6.30;;;;;;;8.46;70.11;101793.35;132654;1251;108358;-80
2024/04/11 05:03:31;;;;;;;9.60;5.80;;;;;;;8.58;70.25;101796.09;131226;1255;106485;-78
2024/04/11 05:06:37;;;;;;;9.80;5.60;;;;;;;8.71;70.08;101793.83;132552;1251;107382;-77
2024/04/11 05:09:45;;;;;;;7.40;5.30;;;;;;;8.80;70.25;101794.41;131073;1252;108384;-76
2024/04/11 05:12:56;;;;;;;8.60;5.70;;;;;;;8.91;70.28;101798.50;131358;1250;107527;-76
2024/04/11 05:16:06;;;;;;;9.50;5.50;;;;;;;9.04;70.43;101798.15;131296;1251;107844;-79
2024/04/11 05:19:15;;;;;;;7.00;5.20;;;;;;;9.17;70.49;101799.19;131197;1263;107250;-75
2024/04/11 05:22:22;;;;;;;7.50;4.90;;;;;;;9.31;70.75;101809.45;133848;1250;108680;-75
2024/04/11 05:25:29;;;;;;;10.40;4.50;;;;;;;9.44;70.73;101809.06;131301;1253;107012;-76
2024/04/11 05:28:40;;;;;;;7.10;4.90;;;;;;;9.58;71.02;101812.12;133262;1250;106879;-74
2024/04/11 05:31:46;;;;;;;8.20;4.80;;;;;;;9.72;71.08;101816.46;131346;1251;108211;-74
2024/04/11 05:34:51;;;;;;;7.30;4.70;;;;;;;9.87;71.18;101818.27;133583;1249;105483;-74
2024/04/11 05:38:10;;;;;;;8.30;4.70;;;;;;;10.01;71.19;101819.18;134735;1250;106519;-79
2024/04/11 05:41:18;;;;;;;8.30;5.30;;;;;;;10.17;71.48;101818.23;131367;1249;107615;-78
2024/04/11 05:44:28;;;;;;;8.10;4.80;;;;;;;10.29;71.23;101817.36;131162;1254;107717;-79
2024/04/11 05:47:57;;;;;;;9.60;5.30;;;;;;;10.42;71.63;101819.67;131078;1250;107425;-77
2024/04/11 05:51:05;;;;;;;7.90;5.40;;;;;;;10.51;71.55;101820.57;131120;1250;108614;-78
2024/04/11 05:54:10;;;;;;;11.30;5.30;;;;;;;10.61;71.68;101824.11;131057;1253;108972;-76
2024/04/11 05:57:16;;;;;;;8.00;4.40;;;;;;;10.72;71.85;101828.27;130990;1253;109019;-79
2024/04/11 06:00:23;;;;;;;9.60;4.20;;;;;;;10.79;71.58;101826.29;130995;1253;108431;-79
2024/04/11 06:03:29;;;;;;;5.50;3.60;;;;;;;10.88;71.09;101831.71;130943;1253;107171;-79
2024/04/11 06:06:35;;;;;;;6.40;3.20;;;;;;;10.96;70.60;101841.42;131018;1253;107012;-79
2024/04/11 06:09:41;;;;;;;3.90;2.30;;;;;;;11.04;69.87;101838.02;131056;1253;108633;-79
2024/04/11 06:12:46;;;;;;;6.90;2.30;;;;;;;11.09;69.32;101840.80;130951;1251;105759;-78
2024/04/11 06:15:51;;;;;;;3.90;2.60;;;;;;;11.17;69.08;101844.05;131151;1258;108624;-79
2024/04/11 06:18:56;;;;;;;5.30;2.20;;;;;;;11.24;68.30;101847.15;131304;1250;105756;-77
2024/04/11 06:22:06;;;;;;;5.60;2.20;;;;;;;11.28;68.30;101846.79;131232;1251;108741;-76
2024/04/11 06:25:11;;;;;;;5.10;2.20;;;;;;;11.31;68.37;101849.56;131239;1264;107496;-77
2024/04/11 06:28:18;;;;;;;8.80;2.10;;;;;;;11.37;67.25;101849.32;131263;1254;107560;-77
2024/04/11 06:31:28;;;;;;;4.90;2.00;;;;;;;11.37;66.60;101849.83;131236;1251;108147;-77
2024/04/11 06:34:33;;;;;;;6.40;1.80;;;;;;;11.41;65.47;101849.73;130972;1256;107704;-77
2024/04/11 06:37:44;;;;;;;3.20;1.60;;;;;;;11.40;65.33;101851.56;131199;1249;108463;-78
2024/04/11 06:40:49;;;;;;;5.40;1.80;;;;;;;11.44;64.18;101853.98;131239;1251;107560;-77
2024/04/11 06:43:55;;;;;;;5.90;2.00;;;;;;;11.46;64.28;101855.25;131137;1251;108377;-77
2024/04/11 06:47:03;;;;;;;5.10;1.90;;;;;;;11.47;63.87;101856.55;131275;1253;106681;-77
2024/04/11 06:50:09;;;;;;;4.00;2.10;;;;;;;11.52;65.02;101853.65;131238;1253;106582;-78
2024/04/11 06:53:14;;;;;;;5.00;2.30;;;;;;;11.59;63.62;101854.03;131319;1250;107723;-78
2024/04/11 06:56:22;;;;;;;8.20;2.10;;;;;;;11.65;64.21;101854.47;131070;1251;106568;-78
2024/04/11 06:59:27;;;;;;;4.70;2.50;;;;;;;11.75;64.21;101859.02;131024;1256;106790;-78
2024/04/11 07:02:32;;;;;;;4.30;2.10;;;;;;;11.80;62.78;101857.37;131094;1253;107564;-79
2024/04/11 07:05:38;;;;;;;5.00;2.40;;;;;;;11.81;62.63;101862.08;131034;1255;106275;-78
2024/04/11 07:08:43;;;;;;;4.30;2.30;;;;;;;11.80;61.68;101863.22;131047;1255;106710;-77
2024/04/11 07:11:49;;;;;;;4.20;2.00;;;;;;;11.84;61.10;101866.20;131105;1252;108579;-78
2024/04/11 07:14:54;;;;;;;6.50;2.10;;;;;;;11.84;60.78;101868.70;130852;1257;108690;-78
2024/04/11 07:18:01;;;;;;;4.00;1.90;;;;;;;11.85;61.21;101873.73;131000;1257;108587;-78
2024/04/11 07:21:07;;;;;;;3.60;1.90;;;;;;;11.92;61.94;101870.84;130905;1255;107719;-78
2024/04/11 07:24:13;;;;;;;6.90;2.10;;;;;;;12.05;61.35;101871.27;130901;1252;108606;-80
2024/04/11 07:27:19;;;;;;;4.30;2.10;;;;;;;12.08;59.83;101871.95;131045;1253;106888;-81
2024/04/11 07:30:24;;;;;;;3.60;1.80;;;;;;;12.10;61.33;101869.08;131141;1253;106636;-82
2024/04/11 07:33:30;;;;;;;7.50;2.60;;;;;;;12.17;59.18;101873.16;130981;1256;107835;-81
2024/04/11 07:36:41;;;;;;;5.90;2.20;;;;;;;12.14;59.20;101869.48;131166;1254;106847;-81
2024/04/11 07:39:46;;;;;;;3.50;1.80;;;;;;;12.20;60.86;101860.44;130896;1257;106862;-80
2024/04/11 07:42:55;;;;;;;3.90;2.00;;;;;;;12.31;61.02;101853.98;130837;1258;107216;-80
2024/04/11 07:46:04;;;;;;;5.00;1.90;;;;;;;12.45;60.88;101856.80;131137;1251;107697;-80
2024/04/11 07:49:11;;;;;;;3.70;1.90;;;;;;;12.57;61.24;101859.73;130878;1255;106601;-82
2024/04/11 07:52:16;;;;;;;3.70;1.80;;;;;;;12.71;61.23;101858.27;130883;1252;107882;-80
2024/04/11 07:55:22;;;;;;;5.50;2.30;;;;;;;12.78;59.09;101862.67;130791;1255;107466;-80
2024/04/11 07:58:28;;;;;;;6.70;2.10;;;;;;;12.81;59.40;101864.19;130735;1257;108519;-80
2024/04/11 08:01:36;;;;;;;3.50;1.90;;;;;;;12.86;60.15;101861.95;130887;1258;107850;-80
2024/04/11 08:04:41;;;;;;;4.50;2.60;;;;;;;12.91;59.32;101858.67;130841;1255;106366;-81
2024/04/11 08:07:47;;;;;;;5.10;1.90;;;;;;;12.92;59.22;101857.55;131253;1253;108541;-81
2024/04/11 08:11:02;;;;;;;3.60;1.90;;;;;;;12.95;58.51;101853.91;131135;1252;107252;-82
2024/04/11 08:14:08;;;;;;;5.20;2.50;;;;;;;13.06;58.64;101853.91;131063;1256;107930;-83
2024/04/11 08:17:13;;;;;;;4.30;2.40;;;;;;;13.10;59.08;101849.80;131047;1250;106515;-79
2024/04/11 08:20:19;;;;;;;5.10;2.70;;;;;;;13.16;58.58;101847.67;130951;1253;108446;-81
2024/04/11 08:23:25;;;;;;;4.40;2.30;;;;;;;13.20;57.88;101853.94;130867;1252;108246;-81
2024/04/11 08:26:32;;;;;;;4.30;1.90;;;;;;;13.23;58.28;101852.10;130853;1252;107234;-82
2024/04/11 08:29:38;;;;;;;3.70;2.30;;;;;;;13.27;57.63;101853.67;131054;1257;106478;-81
2024/04/11 08:32:45;;;;;;;3.30;1.80;;;;;;;13.35;57.84;101855.88;131042;1254;108214;-82
2024/04/11 08:35:52;;;;;;;3.60;1.80;;;;;;;13.41;58.38;101854.35;131106;1251;107864;-81
2024/04/11 08:38:58;;;;;;;3.10;1.50;;;;;;;13.49;58.71;101847.76;130856;1254;106810;-81
2024/04/11 08:42:08;;;;;;;2.80;1.50;;;;;;;13.58;58.32;101848.72;130882;1255;106724;-79
2024/04/11 08:45:14;;;;;;;4.00;1.60;;;;;;;13.66;54.38;101852.16;131004;1254;108570;-81
2024/04/11 08:48:19;;;;;;;4.80;2.00;;;;;;;13.64;55.99;101850.58;130882;1255;106334;-80
2024/04/11 08:51:24;;;;;;;2.60;1.50;;;;;;;13.78;57.23;101845.52;130926;1255;107685;-81
2024/04/11 08:54:31;;;;;;;2.60;1.80;;;;;;;13.97;55.94;101846.58;130912;1255;106599;-81
2024/04/11 08:57:37;;;;;;;2.90;1.40;;;;;;;14.05;55.01;101847.99;130887;1255;108474;-81
2024/04/11 09:00:43;;;;;;;2.90;1.70;;;;;;;14.13;56.22;101848.36;130879;1256;106653;-82
2024/04/11 09:03:48;;;;;;;1.80;1.20;;;;;;;14.19;53.55;101847.16;131224;1267;107279;-81
2024/04/11 09:06:57;;;;;;;2.60;1.40;;;;;;;14.13;52.21;101849.98;131070;1255;107115;-82
2024/04/11 09:10:05;;;;;;;2.60;1.10;;;;;;;13.95;52.67;101849.26;131288;1265;108639;-81
2024/04/11 09:13:16;;;;;;;2.80;1.50;;;;;;;13.78;50.73;101846.80;131221;1251;108905;-81
2024/04/11 09:16:27;;;;;;;1.70;1.00;;;;;;;13.74;52.10;101842.52;131081;1253;108356;-82
2024/04/11 09:19:39;;;;;;;3.10;1.40;;;;;;;13.94;53.30;101839.31;130948;1256;107614;-81
2024/04/11 09:22:51;;;;;;;4.00;1.30;;;;;;;14.13;50.61;101835.27;131089;1255;106962;-82
2024/04/11 09:26:00;;;;;;;3.20;1.70;;;;;;;14.26;52.74;101837.30;130902;1258;108417;-85
2024/04/11 09:29:05;;;;;;;3.10;1.60;;;;;;;14.32;51.99;101838.77;130862;1256;108604;-80
2024/04/11 09:32:12;;;;;;;4.40;1.90;;;;;;;14.36;53.05;101834.83;130960;1253;106889;-80
2024/04/11 09:35:20;;;;;;;4.20;1.70;;;;;;;14.30;51.26;101835.75;130836;1257;108435;-80
2024/04/11 09:38:30;;;;;;;6.10;2.10;;;;;;;14.17;50.45;101837.27;131047;1256;106909;-80
2024/04/11 09:41:37;;;;;;;6.00;2.40;;;;;;;13.94;51.37;101834.52;130964;1255;107095;-81
2024/04/11 09:44:46;;;;;;;4.70;2.30;;;;;;;13.73;51.54;101835.77;130896;1255;108693;-80
2024/04/11 09:47:53;;;;;;;3.30;2.20;;;;;;;13.58;51.96;101832.30;130928;1253;107773;-81
2024/04/11 09:51:00;;;;;;;4.60;2.20;;;;;;;13.56;51.82;101831.00;130870;1253;107731;-81
2024/04/11 09:54:12;;;;;;;3.80;1.90;;;;;;;13.70;52.43;101822.48;131013;1255;108620;-81
2024/04/11 09:57:18;;;;;;;3.30;1.60;;;;;;;13.89;52.15;101819.56;131362;1253;108750;-82
2024/04/11 10:00:48;;;;;;;3.40;1.60;;;;;;;14.03;50.18;101821.20;130953;1251;107414;-81
2024/04/11 10:04:13;;;;;;;2.30;1.40;;;;;;;14.10;50.48;101820.00;130935;1254;107597;-82
2024/04/11 10:07:25;;;;;;;5.30;1.90;;;;;;;14.15;46.38;101815.41;130973;1252;107953;-81
2024/04/11 10:10:33;;;;;;;4.80;2.20;;;;;;;14.19;46.39;101815.98;130924;1255;108638;-79
2024/04/11 10:13:44;;;;;;;3.00;1.50;;;;;;;14.28;49.86;101807.45;130865;1255;106766;-79
2024/04/11 10:16:55;;;;;;;9.50;5.40;;;;;;;14.41;48.04;101810.73;130848;1256;108022;-79
2024/04/11 10:20:12;;;;;;;3.40;1.60;;;;;;;14.44;45.97;101812.97;130860;1256;106593;-81
2024/04/11 10:23:28;;;;;;;16.40;12.30;;;;;;;14.46;48.36;101808.30;130877;1255;106999;-80
2024/04/11 10:26:34;;;;;;;4.00;2.50;;;;;;;14.56;48.16;101805.99;130793;1256;107696;-80
2024/04/11 10:29:46;;;;;;;21.10;16.20;;;;;;;14.62;49.01;101802.63;130954;1254;106602;-81
2024/04/11 10:32:51;;;;;;;10.60;6.40;;;;;;;14.72;49.24;101803.23;131179;1253;105780;-79
2024/04/11 10:35:56;;;;;;;4.70;2.20;;;;;;;14.80;48.37;101798.45;130893;1252;108284;-80
2024/04/11 10:39:08;;;;;;;7.00;2.60;;;;;;;14.80;46.63;101800.20;131239;1250;107518;-79
2024/04/11 10:42:15;;;;;;;4.00;1.80;;;;;;;14.84;47.52;101794.97;131044;1253;107113;-77
2024/04/11 10:45:23;;;;;;;9.60;7.90;;;;;;;14.96;48.25;101795.90;130963;1252;106243;-76
2024/04/11 10:48:31;;;;;;;4.70;2.50;;;;;;;15.05;48.18;101793.93;130878;1254;108719;-77
2024/04/11 10:51:37;;;;;;;3.20;2.10;;;;;;;15.05;46.22;101798.83;130739;1257;107241;-79
2024/04/11 10:54:44;;;;;;;3.60;2.20;;;;;;;15.02;47.75;101784.90;130765;1252;107619;-78
2024/04/11 10:58:08;;;;;;;4.90;2.10;;;;;;;15.05;47.49;101784.33;130837;1253;106393;-78
2024/04/11 11:01:15;;;;;;;3.60;2.70;;;;;;;15.10;47.78;101785.05;130821;1255;107879;-78
2024/04/11 11:04:21;;;;;;;4.80;3.70;;;;;;;15.21;48.63;101783.35;130861;1254;107663;-79
2024/04/11 11:07:31;;;;;;;4.70;2.90;;;;;;;15.30;48.87;101777.74;130856;1253;106563;-78
2024/04/11 11:10:40;;;;;;;7.50;5.20;;;;;;;15.39;48.99;101779.23;130643;1253;107719;-78
2024/04/11 11:13:47;;;;;;;31.10;25.00;;;;;;;15.51;48.41;101784.59;130687;1256;107797;-79
2024/04/11 11:16:57;;;;;;;17.80;11.90;;;;;;;15.59;48.53;101782.91;130763;1253;108555;-76
2024/04/11 11:20:09;;;;;;;6.40;4.30;;;;;;;15.65;48.43;101779.65;130780;1253;107734;-81
2024/04/11 11:23:15;;;;;;;9.50;7.30;;;;;;;15.73;48.96;101774.55;130876;1258;107475;-75
2024/04/11 11:26:22;;;;;;;353.40;232.10;;;;;;;15.85;48.98;101774.11;130788;1252;107130;-77
2024/04/11 11:29:29;;;;;;;54.00;31.40;;;;;;;15.86;48.22;101773.89;130791;1258;107430;-77
2024/04/11 11:32:35;;;;;;;56.20;44.40;;;;;;;15.81;47.91;101771.46;130923;1265;107449;-79
2024/04/11 11:35:42;;;;;;;24.30;20.10;;;;;;;15.80;48.56;101768.86;130938;1254;106975;-80
2024/04/11 11:38:54;;;;;;;12.80;10.30;;;;;;;15.78;48.27;101770.35;130830;1255;107714;-79
2024/04/11 11:42:08;;;;;;;11.20;7.30;;;;;;;15.78;47.64;101763.19;130934;1257;105783;-79
2024/04/11 11:45:26;;;;;;;42.30;37.60;;;;;;;15.66;47.81;101758.71;131009;1253;106436;-79
2024/04/11 11:48:31;;;;;;;9.90;8.00;;;;;;;15.65;47.93;101753.99;131017;1253;106735;-79
2024/04/11 11:51:38;;;;;;;8.50;4.40;;;;;;;15.67;48.23;101751.36;131098;1253;108676;-78
2024/04/11 11:54:44;;;;;;;4.90;3.80;;;;;;;15.75;47.51;101754.10;131158;1258;107701;-79
2024/04/11 11:57:54;;;;;;;13.30;5.60;;;;;;;15.78;47.99;101748.98;131241;1251;106756;-78
2024/04/11 12:01:01;;;;;;;6.50;4.20;;;;;;;15.86;48.23;101748.54;131005;1253;106557;-79
2024/04/11 12:04:07;;;;;;;6.40;3.70;;;;;;;15.99;48.14;101745.42;131017;1253;106803;-78
2024/04/11 12:07:13;;;;;;;6.50;3.90;;;;;;;16.09;48.14;101745.31;130981;1253;107685;-79
2024/04/11 12:10:18;;;;;;;13.70;8.80;;;;;;;16.17;48.38;101736.55;131085;1253;108659;-78
2024/04/11 12:13:34;;;;;;;12.10;9.00;;;;;;;16.23;48.12;101733.61;131183;1253;107002;-81
2024/04/11 12:16:40;;;;;;;6.80;4.30;;;;;;;16.18;48.12;101729.38;131118;1253;106474;-78
2024/04/11 12:19:46;;;;;;;6.30;3.20;;;;;;;16.14;48.39;101719.79;131150;1253;108618;-79
2024/04/11 12:22:53;;;;;;;8.40;3.30;;;;;;;16.19;48.10;101716.71;130969;1253;106928;-80
2024/04/11 12:26:13;;;;;;;4.80;2.50;;;;;;;16.19;46.82;101709.40;131285;1250;106866;-81
2024/04/11 12:29:40;;;;;;;4.30;2.50;;;;;;;16.12;47.90;101706.14;131017;1254;110295;-79
2024/04/11 12:32:45;;;;;;;3.90;2.50;;;;;;;16.17;47.25;101698.95;131164;1253;108801;-76
2024/04/11 12:35:55;;;;;;;4.90;2.90;;;;;;;16.18;47.08;101692.09;132721;1250;108277;-78
2024/04/11 12:39:12;;;;;;;4.00;2.80;;;;;;;16.21;45.64;101686.42;131134;1253;108748;-78
2024/04/11 12:42:18;;;;;;;5.00;3.10;;;;;;;16.30;46.95;101684.59;131059;1258;108695;-78
2024/04/11 12:45:23;;;;;;;5.90;3.10;;;;;;;16.36;45.03;101681.09;131030;1253;107977;-77
2024/04/11 12:48:34;;;;;;;4.30;2.70;;;;;;;16.39;46.90;101677.19;131040;1253;108695;-79
2024/04/11 12:51:40;;;;;;;5.80;3.80;;;;;;;16.53;47.40;101683.08;131231;1253;107619;-80
2024/04/11 12:54:47;;;;;;;6.70;3.40;;;;;;;16.65;47.22;101678.31;131000;1253;107781;-79
2024/04/11 12:57:52;;;;;;;4.80;3.00;;;;;;;16.75;47.28;101679.28;131031;1253;108826;-79
2024/04/11 13:01:02;;;;;;;6.90;3.30;;;;;;;16.80;47.11;101669.58;131094;1253;107787;-77
2024/04/11 13:04:08;;;;;;;5.70;3.40;;;;;;;16.83;46.85;101669.77;131255;1252;107734;-79
2024/04/11 13:07:13;;;;;;;4.50;3.40;;;;;;;16.79;46.95;101671.61;131404;1251;108586;-78
2024/04/11 13:10:18;;;;;;;5.50;3.30;;;;;;;16.80;47.47;101672.61;130945;1256;106873;-76
2024/04/11 13:13:24;;;;;;;4.80;3.40;;;;;;;16.83;47.07;101663.30;131051;1254;107392;-79
2024/04/11 13:16:29;;;;;;;5.70;3.40;;;;;;;16.81;45.96;101658.18;131046;1253;107834;-82
2024/04/11 13:19:35;;;;;;;5.30;3.10;;;;;;;16.72;46.71;101656.79;131113;1253;106742;-81
2024/04/11 13:22:41;;;;;;;5.10;3.60;;;;;;;16.72;46.86;101651.67;131284;1251;109087;-83
2024/04/11 13:25:47;;;;;;;4.70;3.50;;;;;;;16.75;46.87;101647.58;131128;1253;108711;-82
2024/04/11 13:28:58;;;;;;;5.70;3.80;;;;;;;16.79;46.96;101646.33;132223;1253;107664;-82
2024/04/11 13:32:04;;;;;;;9.90;3.60;;;;;;;16.83;46.78;101640.55;131361;1253;106808;-81
2024/04/11 13:35:13;;;;;;;6.60;3.70;;;;;;;16.84;46.44;101637.52;131268;1253;108081;-81
2024/04/11 13:38:23;;;;;;;4.00;2.90;;;;;;;16.86;46.56;101633.55;131127;1254;106276;-80
2024/04/11 13:44:48;;;;;;;6.40;3.80;;;;;;;16.87;46.53;101639.03;130957;1253;107737;-81
2024/04/11 13:47:58;;;;;;;6.00;4.60;;;;;;;16.87;46.69;101636.70;130927;1256;107737;-80
2024/04/11 13:51:09;;;;;;;88.40;54.50;;;;;;;16.93;46.81;101632.54;131115;1251;108357;-81
2024/04/11 13:54:19;;;;;;;53.80;33.90;;;;;;;16.98;46.60;101633.45;131296;1253;107991;-82
2024/04/11 13:57:32;;;;;;;40.30;27.50;;;;;;;17.01;46.53;101633.42;131497;1250;108632;-80
2024/04/11 14:00:38;;;;;;;7.20;5.10;;;;;;;17.01;45.34;101630.98;131151;1256;106818;-81
2024/04/11 14:03:45;;;;;;;13.80;11.60;;;;;;;16.92;45.00;101633.81;130938;1253;108671;-80
2024/04/11 14:07:03;;;;;;;8.10;5.70;;;;;;;16.93;45.84;101624.40;130897;1256;108695;-81
2024/04/11 14:10:13;;;;;;;6.90;3.80;;;;;;;16.91;44.66;101622.63;131508;1253;107302;-80
2024/04/11 14:13:18;;;;;;;6.10;4.20;;;;;;;16.87;45.54;101618.36;131316;1253;106697;-80
2024/04/11 14:16:46;;;;;;;7.40;4.00;;;;;;;16.91;45.76;101618.17;131605;1255;107696;-80